sensor_id;sensor_type;location;lat;lon;timestamp;P1;durP1;ratioP1;P2;durP2;ratioP2
57826;SDS011;43656;57.746;11.780;2023-02-15T00:01:47;34.35;;;17.92;;
57826;SDS011;43656;57.746;11.780;2023-02-15T00:04:14;32.00;;;16.35;;
57826;SDS011;43656;57.746;11.780;2023-02-15T00:06:41;29.58;;;16.88;;
57826;SDS011;43656;57.746;11.780;2023-02-15T00:09:06;28.60;;;16.27;;
57826;SDS011;43656;57.746;11.780;2023-02-15T00:11:33;29.67;;;16.00;;
57826;SDS011;43656;57.746;11.780;2023-02-15T00:14:14;34.42;;;17.63;;
57826;SDS011;43656;57.746;11.780;2023-02-15T00:16:42;31.67;;;16.35;;
57826;SDS011;43656;57.746;11.780;2023-02-15T00:19:09;32.50;;;17.02;;
57826;SDS011;43656;57.746;11.780;2023-02-15T00:21:35;33.67;;;17.35;;
57826;SDS011;43656;57.746;11.780;2023-02-15T00:24:02;29.13;;;16.08;;
57826;SDS011;43656;57.746;11.780;2023-02-15T00:26:29;29.20;;;16.35;;
57826;SDS011;43656;57.746;11.780;2023-02-15T00:28:55;30.55;;;16.67;;
57826;SDS011;43656;57.746;11.780;2023-02-15T00:31:25;32.10;;;17.35;;
57826;SDS011;43656;57.746;11.780;2023-02-15T00:33:52;33.83;;;18.25;;
57826;SDS011;43656;57.746;11.780;2023-02-15T00:36:17;30.75;;;17.27;;
57826;SDS011;43656;57.746;11.780;2023-02-15T00:38:43;29.70;;;17.35;;
57826;SDS011;43656;57.746;11.780;2023-02-15T00:41:08;31.52;;;16.90;;
57826;SDS011;43656;57.746;11.780;2023-02-15T00:43:35;31.98;;;16.48;;
57826;SDS011;43656;57.746;11.780;2023-02-15T00:46:02;29.88;;;17.13;;
57826;SDS011;43656;57.746;11.780;2023-02-15T00:48:29;32.60;;;17.70;;
57826;SDS011;43656;57.746;11.780;2023-02-15T00:50:56;30.63;;;16.60;;
57826;SDS011;43656;57.746;11.780;2023-02-15T00:53:23;32.70;;;18.27;;
57826;SDS011;43656;57.746;11.780;2023-02-15T00:55:50;30.77;;;16.77;;
57826;SDS011;43656;57.746;11.780;2023-02-15T00:58:15;28.88;;;16.52;;
57826;SDS011;43656;57.746;11.780;2023-02-15T01:00:42;31.20;;;17.00;;
57826;SDS011;43656;57.746;11.780;2023-02-15T01:03:10;31.80;;;17.23;;
57826;SDS011;43656;57.746;11.780;2023-02-15T01:05:36;31.52;;;17.08;;
57826;SDS011;43656;57.746;11.780;2023-02-15T01:08:02;32.17;;;17.80;;
57826;SDS011;43656;57.746;11.780;2023-02-15T01:10:27;36.13;;;18.80;;
57826;SDS011;43656;57.746;11.780;2023-02-15T01:12:53;31.30;;;17.58;;
57826;SDS011;43656;57.746;11.780;2023-02-15T01:15:20;33.67;;;17.55;;
57826;SDS011;43656;57.746;11.780;2023-02-15T01:17:45;31.88;;;17.77;;
57826;SDS011;43656;57.746;11.780;2023-02-15T01:20:19;31.33;;;18.27;;
57826;SDS011;43656;57.746;11.780;2023-02-15T01:22:47;32.88;;;17.33;;
57826;SDS011;43656;57.746;11.780;2023-02-15T01:25:14;32.08;;;17.17;;
57826;SDS011;43656;57.746;11.780;2023-02-15T01:27:43;32.53;;;17.60;;
57826;SDS011;43656;57.746;11.780;2023-02-15T01:30:09;32.85;;;17.77;;
57826;SDS011;43656;57.746;11.780;2023-02-15T01:32:36;33.38;;;17.90;;
57826;SDS011;43656;57.746;11.780;2023-02-15T01:35:01;32.65;;;18.30;;
57826;SDS011;43656;57.746;11.780;2023-02-15T01:37:26;35.25;;;18.92;;
57826;SDS011;43656;57.746;11.780;2023-02-15T01:39:52;34.38;;;19.08;;
57826;SDS011;43656;57.746;11.780;2023-02-15T01:42:24;32.15;;;18.70;;
57826;SDS011;43656;57.746;11.780;2023-02-15T01:44:52;32.80;;;17.95;;
57826;SDS011;43656;57.746;11.780;2023-02-15T01:47:21;33.70;;;19.60;;
57826;SDS011;43656;57.746;11.780;2023-02-15T01:49:47;37.13;;;19.90;;
57826;SDS011;43656;57.746;11.780;2023-02-15T01:52:25;34.38;;;18.52;;
57826;SDS011;43656;57.746;11.780;2023-02-15T01:54:50;37.22;;;18.77;;
57826;SDS011;43656;57.746;11.780;2023-02-15T01:57:17;37.03;;;19.45;;
57826;SDS011;43656;57.746;11.780;2023-02-15T01:59:47;35.35;;;19.67;;
57826;SDS011;43656;57.746;11.780;2023-02-15T02:02:18;35.95;;;19.35;;
57826;SDS011;43656;57.746;11.780;2023-02-15T02:04:49;34.85;;;19.48;;
57826;SDS011;43656;57.746;11.780;2023-02-15T02:07:18;36.03;;;18.98;;
57826;SDS011;43656;57.746;11.780;2023-02-15T02:09:45;37.78;;;18.92;;
57826;SDS011;43656;57.746;11.780;2023-02-15T02:12:11;37.17;;;19.55;;
57826;SDS011;43656;57.746;11.780;2023-02-15T02:14:37;38.40;;;19.35;;
57826;SDS011;43656;57.746;11.780;2023-02-15T02:28:45;38.10;;;19.67;;
57826;SDS011;43656;57.746;11.780;2023-02-15T02:34:38;43.35;;;19.35;;
57826;SDS011;43656;57.746;11.780;2023-02-15T02:40:13;34.90;;;19.02;;
57826;SDS011;43656;57.746;11.780;2023-02-15T02:42:55;37.47;;;19.80;;
57826;SDS011;43656;57.746;11.780;2023-02-15T02:47:57;36.10;;;19.48;;
57826;SDS011;43656;57.746;11.780;2023-02-15T02:50:29;37.55;;;20.08;;
57826;SDS011;43656;57.746;11.780;2023-02-15T02:52:56;34.72;;;19.27;;
57826;SDS011;43656;57.746;11.780;2023-02-15T02:58:18;38.33;;;20.40;;
57826;SDS011;43656;57.746;11.780;2023-02-15T03:01:21;36.15;;;20.42;;
57826;SDS011;43656;57.746;11.780;2023-02-15T03:03:56;38.80;;;20.52;;
57826;SDS011;43656;57.746;11.780;2023-02-15T03:06:30;37.80;;;20.50;;
57826;SDS011;43656;57.746;11.780;2023-02-15T03:12:07;36.78;;;20.92;;
57826;SDS011;43656;57.746;11.780;2023-02-15T03:14:36;42.38;;;21.38;;
57826;SDS011;43656;57.746;11.780;2023-02-15T03:17:02;40.40;;;22.05;;
57826;SDS011;43656;57.746;11.780;2023-02-15T03:19:30;40.83;;;21.25;;
57826;SDS011;43656;57.746;11.780;2023-02-15T03:25:08;36.20;;;21.13;;
57826;SDS011;43656;57.746;11.780;2023-02-15T03:27:40;37.28;;;20.17;;
57826;SDS011;43656;57.746;11.780;2023-02-15T03:30:10;37.35;;;21.08;;
57826;SDS011;43656;57.746;11.780;2023-02-15T03:32:38;38.85;;;21.15;;
57826;SDS011;43656;57.746;11.780;2023-02-15T03:35:06;36.90;;;20.77;;
57826;SDS011;43656;57.746;11.780;2023-02-15T03:37:48;37.40;;;19.98;;
57826;SDS011;43656;57.746;11.780;2023-02-15T03:40:38;37.88;;;21.40;;
57826;SDS011;43656;57.746;11.780;2023-02-15T03:46:32;35.28;;;19.83;;
57826;SDS011;43656;57.746;11.780;2023-02-15T03:49:19;39.03;;;20.95;;
57826;SDS011;43656;57.746;11.780;2023-02-15T03:51:50;36.95;;;21.42;;
57826;SDS011;43656;57.746;11.780;2023-02-15T03:54:29;34.85;;;20.88;;
57826;SDS011;43656;57.746;11.780;2023-02-15T03:57:18;35.72;;;20.55;;
57826;SDS011;43656;57.746;11.780;2023-02-15T04:00:08;39.13;;;20.73;;
57826;SDS011;43656;57.746;11.780;2023-02-15T04:03:14;36.45;;;20.17;;
57826;SDS011;43656;57.746;11.780;2023-02-15T04:05:51;37.13;;;20.38;;
57826;SDS011;43656;57.746;11.780;2023-02-15T04:08:17;37.30;;;20.25;;
57826;SDS011;43656;57.746;11.780;2023-02-15T04:10:42;38.00;;;21.77;;
57826;SDS011;43656;57.746;11.780;2023-02-15T04:13:17;35.95;;;20.70;;
57826;SDS011;43656;57.746;11.780;2023-02-15T04:15:43;38.60;;;20.65;;
57826;SDS011;43656;57.746;11.780;2023-02-15T04:18:27;41.38;;;21.27;;
57826;SDS011;43656;57.746;11.780;2023-02-15T04:21:11;35.65;;;20.23;;
57826;SDS011;43656;57.746;11.780;2023-02-15T04:23:55;39.22;;;21.35;;
57826;SDS011;43656;57.746;11.780;2023-02-15T04:26:39;40.00;;;20.83;;
57826;SDS011;43656;57.746;11.780;2023-02-15T04:29:05;40.97;;;21.90;;
57826;SDS011;43656;57.746;11.780;2023-02-15T04:31:30;39.95;;;21.17;;
57826;SDS011;43656;57.746;11.780;2023-02-15T04:33:55;39.35;;;21.25;;
57826;SDS011;43656;57.746;11.780;2023-02-15T04:36:21;42.28;;;22.02;;
57826;SDS011;43656;57.746;11.780;2023-02-15T04:38:46;39.28;;;21.60;;
57826;SDS011;43656;57.746;11.780;2023-02-15T04:41:12;42.40;;;21.50;;
57826;SDS011;43656;57.746;11.780;2023-02-15T04:43:38;39.03;;;20.83;;
57826;SDS011;43656;57.746;11.780;2023-02-15T04:46:03;38.75;;;21.23;;
57826;SDS011;43656;57.746;11.780;2023-02-15T04:48:29;44.22;;;21.95;;
57826;SDS011;43656;57.746;11.780;2023-02-15T04:50:54;39.25;;;21.70;;
57826;SDS011;43656;57.746;11.780;2023-02-15T04:53:20;42.33;;;22.02;;
57826;SDS011;43656;57.746;11.780;2023-02-15T04:55:45;40.40;;;21.55;;
57826;SDS011;43656;57.746;11.780;2023-02-15T04:58:10;42.28;;;21.23;;
57826;SDS011;43656;57.746;11.780;2023-02-15T05:00:36;39.92;;;20.92;;
57826;SDS011;43656;57.746;11.780;2023-02-15T05:03:01;38.95;;;20.25;;
57826;SDS011;43656;57.746;11.780;2023-02-15T05:05:27;36.85;;;20.83;;
57826;SDS011;43656;57.746;11.780;2023-02-15T05:07:52;37.95;;;20.58;;
57826;SDS011;43656;57.746;11.780;2023-02-15T05:10:18;40.67;;;20.40;;
57826;SDS011;43656;57.746;11.780;2023-02-15T05:12:43;39.05;;;20.17;;
57826;SDS011;43656;57.746;11.780;2023-02-15T05:15:09;39.45;;;19.52;;
57826;SDS011;43656;57.746;11.780;2023-02-15T05:17:35;37.30;;;19.55;;
57826;SDS011;43656;57.746;11.780;2023-02-15T05:20:01;38.88;;;19.65;;
57826;SDS011;43656;57.746;11.780;2023-02-15T05:22:27;40.47;;;21.05;;
57826;SDS011;43656;57.746;11.780;2023-02-15T05:24:52;35.38;;;18.45;;
57826;SDS011;43656;57.746;11.780;2023-02-15T05:27:36;38.45;;;19.70;;
57826;SDS011;43656;57.746;11.780;2023-02-15T05:30:20;35.03;;;19.58;;
57826;SDS011;43656;57.746;11.780;2023-02-15T05:32:45;43.50;;;21.08;;
57826;SDS011;43656;57.746;11.780;2023-02-15T05:35:12;39.53;;;19.60;;
57826;SDS011;43656;57.746;11.780;2023-02-15T05:37:40;40.08;;;19.75;;
57826;SDS011;43656;57.746;11.780;2023-02-15T05:40:05;41.80;;;20.30;;
57826;SDS011;43656;57.746;11.780;2023-02-15T05:42:31;37.38;;;19.98;;
57826;SDS011;43656;57.746;11.780;2023-02-15T05:44:57;37.75;;;20.05;;
57826;SDS011;43656;57.746;11.780;2023-02-15T05:47:23;35.60;;;19.67;;
57826;SDS011;43656;57.746;11.780;2023-02-15T05:49:49;40.80;;;19.73;;
57826;SDS011;43656;57.746;11.780;2023-02-15T05:52:14;36.72;;;19.70;;
57826;SDS011;43656;57.746;11.780;2023-02-15T05:54:39;38.35;;;19.95;;
57826;SDS011;43656;57.746;11.780;2023-02-15T05:57:05;36.97;;;19.75;;
57826;SDS011;43656;57.746;11.780;2023-02-15T05:59:30;37.45;;;19.65;;
57826;SDS011;43656;57.746;11.780;2023-02-15T06:01:55;36.97;;;19.25;;
57826;SDS011;43656;57.746;11.780;2023-02-15T06:04:21;38.20;;;20.20;;
57826;SDS011;43656;57.746;11.780;2023-02-15T06:06:46;38.90;;;19.98;;
57826;SDS011;43656;57.746;11.780;2023-02-15T06:09:12;40.85;;;20.15;;
57826;SDS011;43656;57.746;11.780;2023-02-15T06:11:38;37.65;;;19.52;;
57826;SDS011;43656;57.746;11.780;2023-02-15T06:14:03;39.08;;;20.42;;
57826;SDS011;43656;57.746;11.780;2023-02-15T06:16:29;36.85;;;19.95;;
57826;SDS011;43656;57.746;11.780;2023-02-15T06:18:54;39.88;;;21.15;;
57826;SDS011;43656;57.746;11.780;2023-02-15T06:21:20;38.90;;;21.30;;
57826;SDS011;43656;57.746;11.780;2023-02-15T06:23:45;38.25;;;21.60;;
57826;SDS011;43656;57.746;11.780;2023-02-15T06:26:11;42.33;;;22.58;;
57826;SDS011;43656;57.746;11.780;2023-02-15T06:28:36;39.95;;;22.00;;
57826;SDS011;43656;57.746;11.780;2023-02-15T06:31:02;34.25;;;20.05;;
57826;SDS011;43656;57.746;11.780;2023-02-15T06:33:28;39.58;;;20.85;;
57826;SDS011;43656;57.746;11.780;2023-02-15T06:35:55;38.65;;;20.73;;
57826;SDS011;43656;57.746;11.780;2023-02-15T06:38:21;42.78;;;22.55;;
57826;SDS011;43656;57.746;11.780;2023-02-15T06:40:47;39.65;;;22.08;;
57826;SDS011;43656;57.746;11.780;2023-02-15T06:43:12;42.97;;;22.80;;
57826;SDS011;43656;57.746;11.780;2023-02-15T06:45:38;38.25;;;22.42;;
57826;SDS011;43656;57.746;11.780;2023-02-15T06:48:04;41.40;;;22.33;;
57826;SDS011;43656;57.746;11.780;2023-02-15T06:50:31;42.83;;;22.88;;
57826;SDS011;43656;57.746;11.780;2023-02-15T06:52:57;42.00;;;23.10;;
57826;SDS011;43656;57.746;11.780;2023-02-15T06:55:23;41.80;;;23.45;;
57826;SDS011;43656;57.746;11.780;2023-02-15T06:57:48;45.55;;;23.40;;
57826;SDS011;43656;57.746;11.780;2023-02-15T07:00:14;41.97;;;23.70;;
57826;SDS011;43656;57.746;11.780;2023-02-15T07:02:40;40.53;;;24.00;;
57826;SDS011;43656;57.746;11.780;2023-02-15T07:05:05;42.95;;;23.17;;
57826;SDS011;43656;57.746;11.780;2023-02-15T07:07:30;45.15;;;24.25;;
57826;SDS011;43656;57.746;11.780;2023-02-15T07:09:56;41.72;;;23.63;;
57826;SDS011;43656;57.746;11.780;2023-02-15T07:12:21;40.50;;;23.60;;
57826;SDS011;43656;57.746;11.780;2023-02-15T07:15:05;42.90;;;23.75;;
57826;SDS011;43656;57.746;11.780;2023-02-15T07:17:32;43.10;;;24.15;;
57826;SDS011;43656;57.746;11.780;2023-02-15T07:19:58;41.60;;;24.13;;
57826;SDS011;43656;57.746;11.780;2023-02-15T07:22:24;40.58;;;23.02;;
57826;SDS011;43656;57.746;11.780;2023-02-15T07:24:49;42.35;;;22.92;;
57826;SDS011;43656;57.746;11.780;2023-02-15T07:27:15;41.78;;;22.27;;
57826;SDS011;43656;57.746;11.780;2023-02-15T07:29:40;43.90;;;23.73;;
57826;SDS011;43656;57.746;11.780;2023-02-15T07:32:06;44.05;;;23.90;;
57826;SDS011;43656;57.746;11.780;2023-02-15T07:34:31;46.08;;;24.70;;
57826;SDS011;43656;57.746;11.780;2023-02-15T07:36:57;44.03;;;23.52;;
57826;SDS011;43656;57.746;11.780;2023-02-15T07:39:22;43.08;;;23.70;;
57826;SDS011;43656;57.746;11.780;2023-02-15T07:41:48;44.53;;;23.45;;
57826;SDS011;43656;57.746;11.780;2023-02-15T07:44:14;44.05;;;23.15;;
57826;SDS011;43656;57.746;11.780;2023-02-15T07:46:39;45.72;;;24.90;;
57826;SDS011;43656;57.746;11.780;2023-02-15T07:49:06;42.70;;;23.00;;
57826;SDS011;43656;57.746;11.780;2023-02-15T07:51:31;44.15;;;23.50;;
57826;SDS011;43656;57.746;11.780;2023-02-15T07:53:57;43.53;;;23.88;;
57826;SDS011;43656;57.746;11.780;2023-02-15T07:56:22;44.83;;;23.42;;
57826;SDS011;43656;57.746;11.780;2023-02-15T07:58:48;41.08;;;22.90;;
57826;SDS011;43656;57.746;11.780;2023-02-15T08:01:17;43.22;;;24.17;;
57826;SDS011;43656;57.746;11.780;2023-02-15T08:03:47;43.83;;;23.65;;
57826;SDS011;43656;57.746;11.780;2023-02-15T08:06:13;43.75;;;23.33;;
57826;SDS011;43656;57.746;11.780;2023-02-15T08:08:38;42.35;;;24.15;;
57826;SDS011;43656;57.746;11.780;2023-02-15T08:11:06;43.53;;;22.08;;
57826;SDS011;43656;57.746;11.780;2023-02-15T08:21:34;41.67;;;22.85;;
57826;SDS011;43656;57.746;11.780;2023-02-15T08:24:01;42.20;;;23.85;;
57826;SDS011;43656;57.746;11.780;2023-02-15T08:26:28;41.92;;;22.85;;
57826;SDS011;43656;57.746;11.780;2023-02-15T08:28:54;43.05;;;22.95;;
57826;SDS011;43656;57.746;11.780;2023-02-15T08:31:20;42.38;;;22.95;;
57826;SDS011;43656;57.746;11.780;2023-02-15T08:33:47;42.30;;;23.63;;
57826;SDS011;43656;57.746;11.780;2023-02-15T08:36:15;45.53;;;24.52;;
57826;SDS011;43656;57.746;11.780;2023-02-15T08:38:43;43.47;;;23.52;;
57826;SDS011;43656;57.746;11.780;2023-02-15T08:41:09;44.65;;;24.00;;
57826;SDS011;43656;57.746;11.780;2023-02-15T08:43:34;42.47;;;23.85;;
57826;SDS011;43656;57.746;11.780;2023-02-15T08:46:00;43.15;;;23.15;;
57826;SDS011;43656;57.746;11.780;2023-02-15T08:48:25;41.85;;;23.25;;
57826;SDS011;43656;57.746;11.780;2023-02-15T08:50:50;42.60;;;24.05;;
57826;SDS011;43656;57.746;11.780;2023-02-15T08:53:16;40.17;;;22.23;;
57826;SDS011;43656;57.746;11.780;2023-02-15T08:55:45;42.13;;;23.25;;
57826;SDS011;43656;57.746;11.780;2023-02-15T08:58:10;45.80;;;22.33;;
57826;SDS011;43656;57.746;11.780;2023-02-15T09:00:36;43.30;;;22.88;;
57826;SDS011;43656;57.746;11.780;2023-02-15T09:03:01;41.38;;;22.40;;
57826;SDS011;43656;57.746;11.780;2023-02-15T09:05:26;39.97;;;21.42;;
57826;SDS011;43656;57.746;11.780;2023-02-15T09:07:52;34.88;;;20.23;;
57826;SDS011;43656;57.746;11.780;2023-02-15T09:10:17;38.72;;;21.45;;
57826;SDS011;43656;57.746;11.780;2023-02-15T09:12:43;39.60;;;20.73;;
57826;SDS011;43656;57.746;11.780;2023-02-15T09:15:08;40.00;;;21.85;;
57826;SDS011;43656;57.746;11.780;2023-02-15T09:17:33;39.53;;;21.15;;
57826;SDS011;43656;57.746;11.780;2023-02-15T09:19:59;43.80;;;23.02;;
57826;SDS011;43656;57.746;11.780;2023-02-15T09:22:24;44.85;;;23.08;;
57826;SDS011;43656;57.746;11.780;2023-02-15T09:24:49;46.63;;;21.98;;
57826;SDS011;43656;57.746;11.780;2023-02-15T09:27:15;41.60;;;21.85;;
57826;SDS011;43656;57.746;11.780;2023-02-15T09:29:40;43.67;;;22.30;;
57826;SDS011;43656;57.746;11.780;2023-02-15T09:32:06;40.42;;;22.17;;
57826;SDS011;43656;57.746;11.780;2023-02-15T09:34:31;42.70;;;22.30;;
57826;SDS011;43656;57.746;11.780;2023-02-15T09:36:57;45.83;;;22.25;;
57826;SDS011;43656;57.746;11.780;2023-02-15T09:39:23;43.25;;;22.40;;
57826;SDS011;43656;57.746;11.780;2023-02-15T09:58:53;37.58;;;22.63;;
57826;SDS011;43656;57.746;11.780;2023-02-15T10:01:33;37.45;;;22.35;;
57826;SDS011;43656;57.746;11.780;2023-02-15T10:13:12;38.70;;;23.60;;
57826;SDS011;43656;57.746;11.780;2023-02-15T10:15:48;39.95;;;26.35;;
57826;SDS011;43656;57.746;11.780;2023-02-15T10:26:43;40.75;;;26.08;;
57826;SDS011;43656;57.746;11.780;2023-02-15T10:34:50;45.35;;;27.35;;
57826;SDS011;43656;57.746;11.780;2023-02-15T10:50:55;41.53;;;23.88;;
57826;SDS011;43656;57.746;11.780;2023-02-15T10:53:44;42.85;;;24.27;;
57826;SDS011;43656;57.746;11.780;2023-02-15T11:06:43;42.33;;;23.10;;
57826;SDS011;43656;57.746;11.780;2023-02-15T11:09:17;43.47;;;23.30;;
57826;SDS011;43656;57.746;11.780;2023-02-15T11:11:48;47.78;;;22.75;;
57826;SDS011;43656;57.746;11.780;2023-02-15T11:17:12;41.60;;;23.05;;
57826;SDS011;43656;57.746;11.780;2023-02-15T11:19:42;44.65;;;21.35;;
57826;SDS011;43656;57.746;11.780;2023-02-15T11:22:33;49.60;;;24.33;;
57826;SDS011;43656;57.746;11.780;2023-02-15T11:25:00;49.55;;;25.30;;
57826;SDS011;43656;57.746;11.780;2023-02-15T11:27:28;48.40;;;23.80;;
57826;SDS011;43656;57.746;11.780;2023-02-15T11:32:43;48.35;;;26.67;;
57826;SDS011;43656;57.746;11.780;2023-02-15T11:37:42;49.03;;;27.02;;
57826;SDS011;43656;57.746;11.780;2023-02-15T11:40:19;50.30;;;27.65;;
57826;SDS011;43656;57.746;11.780;2023-02-15T11:42:48;48.97;;;27.92;;
57826;SDS011;43656;57.746;11.780;2023-02-15T11:47:47;48.22;;;27.83;;
57826;SDS011;43656;57.746;11.780;2023-02-15T11:50:19;50.65;;;28.65;;
57826;SDS011;43656;57.746;11.780;2023-02-15T11:52:48;53.15;;;27.95;;
57826;SDS011;43656;57.746;11.780;2023-02-15T11:55:17;48.95;;;27.45;;
57826;SDS011;43656;57.746;11.780;2023-02-15T11:58:09;46.92;;;27.17;;
57826;SDS011;43656;57.746;11.780;2023-02-15T12:00:49;47.30;;;28.05;;
57826;SDS011;43656;57.746;11.780;2023-02-15T12:04:03;48.65;;;28.00;;
57826;SDS011;43656;57.746;11.780;2023-02-15T12:06:33;46.67;;;27.92;;
57826;SDS011;43656;57.746;11.780;2023-02-15T12:14:48;50.17;;;27.30;;
57826;SDS011;43656;57.746;11.780;2023-02-15T12:17:15;47.60;;;26.90;;
57826;SDS011;43656;57.746;11.780;2023-02-15T12:19:41;51.65;;;27.88;;
57826;SDS011;43656;57.746;11.780;2023-02-15T12:25:25;50.33;;;27.30;;
57826;SDS011;43656;57.746;11.780;2023-02-15T12:27:54;48.50;;;27.48;;
57826;SDS011;43656;57.746;11.780;2023-02-15T12:30:30;50.85;;;28.40;;
57826;SDS011;43656;57.746;11.780;2023-02-15T12:36:15;52.35;;;28.98;;
57826;SDS011;43656;57.746;11.780;2023-02-15T12:39:04;51.63;;;28.25;;
57826;SDS011;43656;57.746;11.780;2023-02-15T12:41:56;52.83;;;29.00;;
57826;SDS011;43656;57.746;11.780;2023-02-15T12:44:28;48.90;;;29.02;;
57826;SDS011;43656;57.746;11.780;2023-02-15T12:46:58;51.88;;;28.88;;
57826;SDS011;43656;57.746;11.780;2023-02-15T12:49:27;54.55;;;28.73;;
57826;SDS011;43656;57.746;11.780;2023-02-15T12:52:01;62.23;;;30.07;;
57826;SDS011;43656;57.746;11.780;2023-02-15T12:54:35;57.13;;;28.67;;
57826;SDS011;43656;57.746;11.780;2023-02-15T12:59:56;50.85;;;28.08;;
57826;SDS011;43656;57.746;11.780;2023-02-15T13:03:14;53.15;;;29.42;;
57826;SDS011;43656;57.746;11.780;2023-02-15T13:05:19;52.53;;;28.05;;
57826;SDS011;43656;57.746;11.780;2023-02-15T13:08:01;52.60;;;28.48;;
57826;SDS011;43656;57.746;11.780;2023-02-15T13:10:39;58.13;;;29.15;;
57826;SDS011;43656;57.746;11.780;2023-02-15T13:13:11;61.45;;;29.77;;
57826;SDS011;43656;57.746;11.780;2023-02-15T13:15:48;55.50;;;28.92;;
57826;SDS011;43656;57.746;11.780;2023-02-15T13:18:16;57.42;;;29.63;;
57826;SDS011;43656;57.746;11.780;2023-02-15T13:21:11;57.17;;;30.42;;
57826;SDS011;43656;57.746;11.780;2023-02-15T13:24:27;59.15;;;29.08;;
57826;SDS011;43656;57.746;11.780;2023-02-15T13:26:52;58.33;;;29.92;;
57826;SDS011;43656;57.746;11.780;2023-02-15T13:31:53;58.83;;;31.05;;
57826;SDS011;43656;57.746;11.780;2023-02-15T13:34:39;63.75;;;32.13;;
57826;SDS011;43656;57.746;11.780;2023-02-15T13:39:49;58.97;;;31.08;;
57826;SDS011;43656;57.746;11.780;2023-02-15T13:47:54;61.33;;;31.33;;
57826;SDS011;43656;57.746;11.780;2023-02-15T14:18:51;56.28;;;29.55;;
57826;SDS011;43656;57.746;11.780;2023-02-15T14:21:32;53.05;;;28.08;;
57826;SDS011;43656;57.746;11.780;2023-02-15T14:24:14;53.55;;;26.65;;
57826;SDS011;43656;57.746;11.780;2023-02-15T14:35:03;47.15;;;24.25;;
57826;SDS011;43656;57.746;11.780;2023-02-15T14:37:37;42.35;;;23.95;;
57826;SDS011;43656;57.746;11.780;2023-02-15T14:43:11;47.78;;;24.17;;
57826;SDS011;43656;57.746;11.780;2023-02-15T14:48:53;56.15;;;26.23;;
57826;SDS011;43656;57.746;11.780;2023-02-15T14:56:45;50.85;;;25.60;;
57826;SDS011;43656;57.746;11.780;2023-02-15T15:07:52;52.50;;;25.48;;
57826;SDS011;43656;57.746;11.780;2023-02-15T15:12:47;50.83;;;24.15;;
57826;SDS011;43656;57.746;11.780;2023-02-15T15:17:53;50.40;;;25.20;;
57826;SDS011;43656;57.746;11.780;2023-02-15T15:22:50;51.67;;;25.77;;
57826;SDS011;43656;57.746;11.780;2023-02-15T15:28:56;52.30;;;23.60;;
57826;SDS011;43656;57.746;11.780;2023-02-15T15:48:22;57.35;;;27.20;;
57826;SDS011;43656;57.746;11.780;2023-02-15T15:50:53;56.58;;;27.73;;
57826;SDS011;43656;57.746;11.780;2023-02-15T15:53:25;55.33;;;27.80;;
57826;SDS011;43656;57.746;11.780;2023-02-15T15:55:55;60.63;;;28.35;;
57826;SDS011;43656;57.746;11.780;2023-02-15T15:58:25;57.10;;;28.90;;
57826;SDS011;43656;57.746;11.780;2023-02-15T16:00:52;56.15;;;26.92;;
57826;SDS011;43656;57.746;11.780;2023-02-15T16:03:25;58.92;;;29.02;;
57826;SDS011;43656;57.746;11.780;2023-02-15T16:05:52;60.03;;;28.85;;
57826;SDS011;43656;57.746;11.780;2023-02-15T16:08:34;57.17;;;28.00;;
57826;SDS011;43656;57.746;11.780;2023-02-15T16:11:13;57.33;;;26.35;;
57826;SDS011;43656;57.746;11.780;2023-02-15T16:13:44;52.28;;;25.55;;
57826;SDS011;43656;57.746;11.780;2023-02-15T16:16:11;60.95;;;27.75;;
57826;SDS011;43656;57.746;11.780;2023-02-15T16:18:38;61.38;;;28.92;;
57826;SDS011;43656;57.746;11.780;2023-02-15T16:21:14;60.00;;;26.92;;
57826;SDS011;43656;57.746;11.780;2023-02-15T16:29:30;61.78;;;26.98;;
57826;SDS011;43656;57.746;11.780;2023-02-15T16:32:01;65.32;;;28.50;;
57826;SDS011;43656;57.746;11.780;2023-02-15T16:34:28;63.97;;;28.08;;
57826;SDS011;43656;57.746;11.780;2023-02-15T16:39:43;62.28;;;27.40;;
57826;SDS011;43656;57.746;11.780;2023-02-15T16:42:13;68.20;;;27.65;;
57826;SDS011;43656;57.746;11.780;2023-02-15T16:44:40;68.88;;;28.65;;
57826;SDS011;43656;57.746;11.780;2023-02-15T16:47:23;56.10;;;24.73;;
57826;SDS011;43656;57.746;11.780;2023-02-15T16:49:51;72.07;;;32.08;;
57826;SDS011;43656;57.746;11.780;2023-02-15T16:52:20;57.70;;;26.30;;
57826;SDS011;43656;57.746;11.780;2023-02-15T16:55:06;61.03;;;27.30;;
57826;SDS011;43656;57.746;11.780;2023-02-15T16:57:32;53.13;;;23.95;;
57826;SDS011;43656;57.746;11.780;2023-02-15T17:00:03;62.33;;;25.92;;
57826;SDS011;43656;57.746;11.780;2023-02-15T17:02:31;57.25;;;26.20;;
57826;SDS011;43656;57.746;11.780;2023-02-15T17:12:56;60.88;;;25.63;;
57826;SDS011;43656;57.746;11.780;2023-02-15T17:15:33;62.28;;;25.10;;
57826;SDS011;43656;57.746;11.780;2023-02-15T17:18:22;59.42;;;24.63;;
57826;SDS011;43656;57.746;11.780;2023-02-15T17:20:48;63.88;;;25.38;;
57826;SDS011;43656;57.746;11.780;2023-02-15T17:25:47;68.93;;;26.85;;
57826;SDS011;43656;57.746;11.780;2023-02-15T17:28:17;71.47;;;29.00;;
57826;SDS011;43656;57.746;11.780;2023-02-15T17:30:45;71.53;;;28.55;;
57826;SDS011;43656;57.746;11.780;2023-02-15T17:33:23;72.72;;;29.13;;
57826;SDS011;43656;57.746;11.780;2023-02-15T17:36:08;65.68;;;25.75;;
57826;SDS011;43656;57.746;11.780;2023-02-15T17:39:19;72.22;;;26.67;;
57826;SDS011;43656;57.746;11.780;2023-02-15T17:41:45;65.25;;;25.92;;
57826;SDS011;43656;57.746;11.780;2023-02-15T17:44:12;74.45;;;26.17;;
57826;SDS011;43656;57.746;11.780;2023-02-15T17:46:40;71.07;;;26.63;;
57826;SDS011;43656;57.746;11.780;2023-02-15T17:49:10;79.53;;;27.27;;
57826;SDS011;43656;57.746;11.780;2023-02-15T17:51:43;69.93;;;26.58;;
57826;SDS011;43656;57.746;11.780;2023-02-15T17:54:09;72.93;;;26.77;;
57826;SDS011;43656;57.746;11.780;2023-02-15T17:56:53;76.57;;;27.40;;
57826;SDS011;43656;57.746;11.780;2023-02-15T17:59:18;80.70;;;26.75;;
57826;SDS011;43656;57.746;11.780;2023-02-15T18:01:47;76.93;;;27.38;;
57826;SDS011;43656;57.746;11.780;2023-02-15T18:04:32;81.05;;;27.73;;
57826;SDS011;43656;57.746;11.780;2023-02-15T18:07:19;85.20;;;28.77;;
57826;SDS011;43656;57.746;11.780;2023-02-15T18:10:11;83.22;;;28.63;;
57826;SDS011;43656;57.746;11.780;2023-02-15T18:12:56;76.43;;;27.63;;
57826;SDS011;43656;57.746;11.780;2023-02-15T18:15:22;84.65;;;29.60;;
57826;SDS011;43656;57.746;11.780;2023-02-15T18:17:48;85.07;;;28.27;;
57826;SDS011;43656;57.746;11.780;2023-02-15T18:22:42;91.13;;;29.77;;
57826;SDS011;43656;57.746;11.780;2023-02-15T18:25:15;87.07;;;29.77;;
57826;SDS011;43656;57.746;11.780;2023-02-15T18:27:42;85.65;;;28.23;;
57826;SDS011;43656;57.746;11.780;2023-02-15T18:30:12;89.10;;;29.20;;
57826;SDS011;43656;57.746;11.780;2023-02-15T18:32:40;96.07;;;30.85;;
57826;SDS011;43656;57.746;11.780;2023-02-15T18:35:09;89.10;;;30.38;;